Time;durP1;ratioP1;P1;durP2;ratioP2;P2;SDS_P1;SDS_P2;PMS_P1;PMS_P2;Temp;Humidity;BMP_temperature;BMP_pressure;BME280_temperature;BME280_humidity;BME280_pressure;Samples;Min_cycle;Max_cycle;Signal;HPM_P1;HPM_P2
2022/07/09 00:00:48;;;;;;;2.05;1.40;;;15.00;78.70;;;;;;4981955;28;20026;-80
2022/07/09 00:03:14;;;;;;;1.35;1.17;;;15.00;79.20;;;;;;4998120;28;20054;-81
2022/07/09 00:05:39;;;;;;;2.40;1.30;;;14.90;79.40;;;;;;4998513;28;20053;-80
2022/07/09 00:08:05;;;;;;;5.78;1.33;;;14.90;79.80;;;;;;4999972;28;20053;-79
2022/07/09 00:10:31;;;;;;;1.77;1.40;;;14.80;80.20;;;;;;4999883;28;20041;-81
2022/07/09 00:12:56;;;;;;;4.45;1.70;;;14.70;80.70;;;;;;5000042;28;20081;-81
2022/07/09 00:15:22;;;;;;;6.22;1.80;;;14.70;81.30;;;;;;5002476;28;20342;-82
2022/07/09 00:17:48;;;;;;;3.15;1.40;;;14.60;81.80;;;;;;4986053;28;20124;-80
2022/07/09 00:20:14;;;;;;;4.38;2.00;;;14.50;82.40;;;;;;5002359;28;20034;-80
2022/07/09 00:22:39;;;;;;;1.17;1.08;;;14.40;82.80;;;;;;5002002;28;20030;-79
2022/07/09 00:25:05;;;;;;;2.17;1.33;;;14.40;83.40;;;;;;4988959;28;20037;-81
2022/07/09 00:27:31;;;;;;;2.45;1.50;;;14.30;83.70;;;;;;5002014;28;20054;-80
2022/07/09 00:29:57;;;;;;;2.15;1.38;;;14.30;84.30;;;;;;5002433;28;20026;-81
2022/07/09 00:32:23;;;;;;;3.30;1.65;;;14.30;84.80;;;;;;5001678;28;20019;-79
2022/07/09 00:34:48;;;;;;;2.53;1.77;;;14.20;85.20;;;;;;5002114;28;20086;-80
2022/07/09 00:37:14;;;;;;;2.85;1.35;;;14.10;85.70;;;;;;4984417;28;20101;-80
2022/07/09 00:39:39;;;;;;;2.25;1.30;;;14.10;86.30;;;;;;5003283;28;20041;-80
2022/07/09 00:42:07;;;;;;;1.35;1.17;;;14.00;86.60;;;;;;4985409;28;20041;-81
2022/07/09 00:44:33;;;;;;;3.75;1.40;;;14.00;87.20;;;;;;5001671;28;20034;-81
2022/07/09 00:46:59;;;;;;;3.70;1.80;;;14.00;87.60;;;;;;5001677;28;20030;-80
2022/07/09 00:49:39;;;;;;;3.20;1.48;;;14.00;87.90;;;;;;5001997;28;20030;-80
2022/07/09 00:52:06;;;;;;;2.92;1.58;;;14.00;87.90;;;;;;5002927;28;20383;-80
2022/07/09 00:54:34;;;;;;;3.10;1.20;;;14.00;88.20;;;;;;5001802;28;20045;-80
2022/07/09 00:56:59;;;;;;;2.42;1.13;;;14.00;88.70;;;;;;5001630;28;20058;-81
2022/07/09 00:59:25;;;;;;;3.13;1.30;;;13.90;89.20;;;;;;5002831;28;20037;-80
2022/07/09 01:01:51;;;;;;;2.20;1.30;;;13.80;89.60;;;;;;4984395;28;20030;-80
2022/07/09 01:04:18;;;;;;;3.65;1.50;;;13.80;90.10;;;;;;5004086;28;20035;-80
2022/07/09 01:06:43;;;;;;;1.90;1.15;;;13.80;90.20;;;;;;4986657;28;20339;-81
2022/07/09 01:09:09;;;;;;;2.15;1.50;;;13.80;90.50;;;;;;5004000;28;20102;-81
2022/07/09 01:11:35;;;;;;;1.73;1.50;;;13.80;90.50;;;;;;5003876;28;20034;-81
2022/07/09 01:14:01;;;;;;;2.50;1.52;;;13.80;90.70;;;;;;4986284;28;20022;-80
2022/07/09 01:16:31;;;;;;;2.80;1.23;;;13.80;90.90;;;;;;5001493;28;20053;-81
2022/07/09 01:18:57;;;;;;;3.15;1.38;;;13.80;91.00;;;;;;5000823;28;20088;-81
2022/07/09 01:21:23;;;;;;;3.58;1.70;;;13.80;91.10;;;;;;5002472;28;20648;-80
2022/07/09 01:23:49;;;;;;;4.65;1.27;;;13.80;91.20;;;;;;5002285;28;20014;-80
2022/07/09 01:26:15;;;;;;;2.63;1.30;;;13.90;91.20;;;;;;4988652;28;20069;-80
2022/07/09 01:28:41;;;;;;;4.70;2.10;;;13.90;91.30;;;;;;4984014;28;20102;-80
2022/07/09 01:31:07;;;;;;;2.72;1.50;;;13.80;91.30;;;;;;5001200;28;20069;-79
2022/07/09 01:33:37;;;;;;;3.83;1.95;;;13.90;91.40;;;;;;4986870;28;20545;-80
2022/07/09 01:36:03;;;;;;;2.65;1.48;;;13.80;91.50;;;;;;5001910;28;20026;-81
2022/07/09 01:38:31;;;;;;;2.88;1.05;;;13.80;91.60;;;;;;5002228;28;20045;-81
2022/07/09 01:40:57;;;;;;;2.13;1.25;;;13.80;91.80;;;;;;5002124;28;20026;-80
2022/07/09 01:43:23;;;;;;;2.97;1.60;;;13.80;91.80;;;;;;5002267;28;20065;-80
2022/07/09 01:46:10;;;;;;;2.45;1.33;;;13.90;91.90;;;;;;4984039;28;20091;-80
2022/07/09 01:48:36;;;;;;;4.63;2.08;;;13.90;92.00;;;;;;4983356;28;20475;-80
2022/07/09 01:51:02;;;;;;;4.65;1.60;;;13.90;92.00;;;;;;5001093;28;20112;-80
2022/07/09 01:53:28;;;;;;;4.65;1.63;;;13.90;92.10;;;;;;5000239;28;20383;-80
2022/07/09 01:55:53;;;;;;;4.18;1.60;;;14.00;92.10;;;;;;4991489;28;20073;-79
2022/07/09 01:58:19;;;;;;;5.13;1.40;;;14.00;92.00;;;;;;5002170;28;20026;-80
2022/07/09 02:00:45;;;;;;;4.95;1.52;;;14.00;92.10;;;;;;5001255;28;20049;-81
2022/07/09 02:03:10;;;;;;;4.45;1.75;;;13.90;92.10;;;;;;5001663;28;20041;-80
2022/07/09 02:05:36;;;;;;;1.98;1.30;;;13.90;92.30;;;;;;5001729;28;20041;-80
2022/07/09 02:08:02;;;;;;;2.50;1.40;;;13.90;92.30;;;;;;5002232;28;20030;-80
2022/07/09 02:10:28;;;;;;;4.78;1.75;;;13.90;92.40;;;;;;5002063;28;20033;-81
2022/07/09 02:12:53;;;;;;;1.80;1.50;;;13.90;92.50;;;;;;5009420;28;20027;-80
2022/07/09 02:15:19;;;;;;;2.67;1.40;;;14.00;92.60;;;;;;5009504;28;20364;-80
2022/07/09 02:17:45;;;;;;;2.58;1.58;;;13.90;92.50;;;;;;5001978;28;20578;-81
2022/07/09 02:20:11;;;;;;;2.25;1.30;;;14.00;92.60;;;;;;4983856;28;20045;-80
2022/07/09 02:22:38;;;;;;;2.75;1.65;;;14.00;92.50;;;;;;4979513;28;20042;-81
2022/07/09 02:25:04;;;;;;;3.33;1.50;;;13.90;92.50;;;;;;5006906;28;20022;-79
2022/07/09 02:27:30;;;;;;;2.90;1.08;;;13.90;92.60;;;;;;5006773;28;20022;-81
2022/07/09 02:29:56;;;;;;;3.42;1.73;;;13.90;92.70;;;;;;5001897;28;20487;-80
2022/07/09 02:32:21;;;;;;;3.40;1.52;;;13.90;92.70;;;;;;4985380;28;20038;-80
2022/07/09 02:34:47;;;;;;;2.28;1.48;;;13.90;92.70;;;;;;5001178;28;20034;-80
2022/07/09 02:37:13;;;;;;;1.65;1.38;;;13.90;92.80;;;;;;5001777;28;20030;-81
2022/07/09 02:39:38;;;;;;;3.72;1.70;;;13.90;92.80;;;;;;5016535;28;20074;-80
2022/07/09 02:42:04;;;;;;;1.73;1.17;;;14.00;92.70;;;;;;5017354;28;20022;-80
2022/07/09 02:44:30;;;;;;;3.58;1.48;;;14.00;92.50;;;;;;5017191;28;20026;-80
2022/07/09 02:46:56;;;;;;;1.73;1.20;;;14.00;92.50;;;;;;4999302;28;20054;-80
2022/07/09 02:49:23;;;;;;;2.03;1.20;;;14.00;92.50;;;;;;5008219;28;20036;-81
2022/07/09 02:51:48;;;;;;;2.20;1.33;;;14.00;92.60;;;;;;5001057;28;20085;-79
2022/07/09 02:54:14;;;;;;;4.50;1.60;;;14.10;92.60;;;;;;5000547;28;20018;-79
2022/07/09 02:56:40;;;;;;;2.72;1.55;;;14.00;92.60;;;;;;5000212;28;20506;-80
2022/07/09 02:59:05;;;;;;;8.20;1.70;;;14.00;92.60;;;;;;5001326;28;20117;-80
2022/07/09 03:01:31;;;;;;;3.45;1.77;;;14.00;92.70;;;;;;4999845;28;20034;-80
2022/07/09 03:03:57;;;;;;;4.20;1.70;;;14.00;92.80;;;;;;5000192;28;20136;-81
2022/07/09 03:06:22;;;;;;;2.38;1.30;;;14.00;92.90;;;;;;5000246;28;20030;-80
2022/07/09 03:08:48;;;;;;;5.30;1.50;;;14.00;93.00;;;;;;5000212;28;20018;-80
2022/07/09 03:11:14;;;;;;;3.95;1.60;;;14.00;93.10;;;;;;5000769;28;20035;-80
2022/07/09 03:13:40;;;;;;;4.38;1.52;;;13.90;93.20;;;;;;5005353;28;20415;-80
2022/07/09 03:16:06;;;;;;;3.03;1.73;;;14.00;93.20;;;;;;5004551;28;20030;-81
2022/07/09 03:18:33;;;;;;;4.05;1.63;;;14.00;93.30;;;;;;5001090;28;20110;-81
2022/07/09 03:20:59;;;;;;;0.85;0.85;;;14.00;93.40;;;;;;4982451;28;20034;-80
2022/07/09 03:23:24;;;;;;;1.77;1.10;;;14.10;93.30;;;;;;4999828;28;20041;-80
2022/07/09 03:25:50;;;;;;;2.90;1.30;;;14.10;93.20;;;;;;5005346;28;20398;-81
2022/07/09 03:28:16;;;;;;;1.63;1.13;;;14.10;93.10;;;;;;4999809;28;20027;-79
2022/07/09 03:30:44;;;;;;;2.33;1.30;;;14.10;93.10;;;;;;4998822;28;20057;-80
2022/07/09 03:33:10;;;;;;;1.27;1.17;;;14.10;93.10;;;;;;4999560;28;20041;-80
2022/07/09 03:35:36;;;;;;;2.60;1.00;;;14.10;93.10;;;;;;5000018;28;20368;-80
2022/07/09 03:38:01;;;;;;;2.00;1.17;;;14.20;93.10;;;;;;5000451;28;20037;-80
2022/07/09 03:40:27;;;;;;;3.92;1.35;;;14.20;93.00;;;;;;4981405;28;20034;-80
2022/07/09 03:42:53;;;;;;;3.35;1.60;;;14.30;93.10;;;;;;4982510;28;20038;-79
2022/07/09 03:45:18;;;;;;;1.02;0.93;;;14.30;93.00;;;;;;4982765;28;20038;-81
2022/07/09 03:47:44;;;;;;;1.77;1.23;;;14.40;93.00;;;;;;4999160;28;20031;-80
2022/07/09 03:50:11;;;;;;;2.03;1.15;;;14.40;92.90;;;;;;4999962;28;20027;-81
2022/07/09 03:52:37;;;;;;;1.20;1.05;;;14.40;92.90;;;;;;4998866;28;20030;-80
2022/07/09 03:55:04;;;;;;;1.10;1.00;;;14.40;92.80;;;;;;4998558;28;20072;-81
2022/07/09 03:57:29;;;;;;;2.15;1.23;;;14.40;92.90;;;;;;4997417;28;20027;-82
2022/07/09 03:59:55;;;;;;;3.13;1.30;;;14.50;92.80;;;;;;4998227;28;20090;-80
2022/07/09 04:02:21;;;;;;;1.95;1.20;;;14.60;92.80;;;;;;4997839;28;20026;-80
2022/07/09 04:04:47;;;;;;;1.95;1.30;;;14.60;92.70;;;;;;4990842;28;20030;-81
2022/07/09 04:07:12;;;;;;;2.08;1.27;;;14.60;92.70;;;;;;4984921;28;20027;-81
2022/07/09 04:09:38;;;;;;;2.13;1.75;;;14.70;92.70;;;;;;5007790;28;20042;-81
2022/07/09 04:12:04;;;;;;;1.88;1.10;;;14.80;92.60;;;;;;4996686;28;20035;-81
2022/07/09 04:14:29;;;;;;;2.00;1.30;;;14.80;92.50;;;;;;5004403;28;20096;-79
2022/07/09 04:16:55;;;;;;;1.50;1.02;;;14.90;92.40;;;;;;5002731;28;20326;-80
2022/07/09 04:19:21;;;;;;;3.03;1.38;;;14.90;92.30;;;;;;5000448;28;20032;-80
2022/07/09 04:21:46;;;;;;;4.00;1.58;;;15.00;92.20;;;;;;5002070;28;20084;-81
2022/07/09 04:24:12;;;;;;;2.17;1.25;;;15.10;92.20;;;;;;5001158;28;20026;-80
2022/07/09 04:26:38;;;;;;;2.72;1.27;;;15.10;92.10;;;;;;5005900;28;20027;-80
2022/07/09 04:29:03;;;;;;;2.90;1.20;;;15.30;92.00;;;;;;5003534;28;20058;-81
2022/07/09 04:31:31;;;;;;;1.55;1.20;;;15.30;91.90;;;;;;5000521;28;20054;-80
2022/07/09 04:34:00;;;;;;;2.85;1.48;;;15.40;91.90;;;;;;5000684;28;20031;-81
2022/07/09 04:36:27;;;;;;;4.13;1.50;;;15.40;91.80;;;;;;5011413;28;20109;-80
2022/07/09 04:38:53;;;;;;;3.88;1.40;;;15.50;91.70;;;;;;5011461;28;20049;-79
2022/07/09 04:41:19;;;;;;;2.97;1.40;;;15.60;91.60;;;;;;4992139;28;20037;-81
2022/07/09 04:43:44;;;;;;;3.70;1.67;;;15.60;91.60;;;;;;5008701;28;20010;-81
2022/07/09 04:46:10;;;;;;;4.65;1.40;;;15.70;91.40;;;;;;5013428;28;20037;-80
2022/07/09 04:48:36;;;;;;;1.88;1.20;;;15.70;91.50;;;;;;5011716;28;20026;-79
2022/07/09 04:51:01;;;;;;;3.03;1.48;;;15.70;91.50;;;;;;5002647;23;20050;-84
2022/07/09 04:53:27;;;;;;;4.05;1.20;;;15.70;91.70;;;;;;5007523;28;20046;-84
2022/07/09 04:55:53;;;;;;;1.73;1.23;;;15.70;91.80;;;;;;5000048;28;20033;-84
2022/07/09 04:58:19;;;;;;;2.70;1.20;;;15.70;91.90;;;;;;4991070;28;20057;-84
2022/07/09 05:00:47;;;;;;;2.15;1.00;;;15.70;92.00;;;;;;5007441;28;20076;-85
2022/07/09 05:03:13;;;;;;;1.60;0.95;;;15.80;92.00;;;;;;4973481;28;20034;-82
2022/07/09 05:05:39;;;;;;;2.80;1.50;;;15.90;92.10;;;;;;4990052;28;20162;-84
2022/07/09 05:08:05;;;;;;;2.28;1.73;;;15.90;91.60;;;;;;4985756;28;20353;-84
2022/07/09 05:10:30;;;;;;;1.48;1.23;;;15.90;91.50;;;;;;4974100;28;20099;-84
2022/07/09 05:12:56;;;;;;;2.50;1.48;;;15.90;91.50;;;;;;4990937;28;20022;-84
2022/07/09 05:15:22;;;;;;;1.38;0.90;;;15.90;91.30;;;;;;4992658;28;20029;-85
2022/07/09 05:17:48;;;;;;;2.22;1.60;;;16.00;91.30;;;;;;4993831;28;20077;-82
2022/07/09 05:20:14;;;;;;;1.52;1.13;;;16.00;91.20;;;;;;4976828;28;20050;-85
2022/07/09 05:22:39;;;;;;;2.50;1.05;;;16.10;91.10;;;;;;4981101;28;20026;-83
2022/07/09 05:25:06;;;;;;;0.90;0.90;;;16.20;91.00;;;;;;4996371;28;20031;-84
2022/07/09 05:27:32;;;;;;;2.10;1.05;;;16.20;90.80;;;;;;4975706;28;20134;-81
2022/07/09 05:29:58;;;;;;;1.65;1.00;;;16.40;90.50;;;;;;4996700;28;20105;-84
2022/07/09 05:32:24;;;;;;;1.65;1.10;;;16.40;90.40;;;;;;4996650;28;20023;-82
2022/07/09 05:34:51;;;;;;;1.75;1.05;;;16.40;90.40;;;;;;4977680;28;20041;-82
2022/07/09 05:37:16;;;;;;;4.90;1.42;;;16.50;90.20;;;;;;4979224;28;20054;-82
2022/07/09 05:39:42;;;;;;;2.85;1.40;;;16.50;90.10;;;;;;4977897;28;20405;-82
2022/07/09 05:42:08;;;;;;;2.83;1.65;;;16.60;90.00;;;;;;4995474;28;20090;-84
2022/07/09 05:44:34;;;;;;;4.32;1.77;;;16.70;89.50;;;;;;4995835;28;20062;-83
2022/07/09 05:47:01;;;;;;;3.70;1.40;;;16.80;89.30;;;;;;4996321;28;20030;-81
2022/07/09 05:49:27;;;;;;;1.70;1.10;;;16.90;88.90;;;;;;4998157;28;20069;-82
2022/07/09 05:51:53;;;;;;;2.08;1.05;;;17.00;88.20;;;;;;4977528;28;20039;-82
2022/07/09 05:54:19;;;;;;;2.47;1.52;;;17.10;87.80;;;;;;4998793;28;20014;-83
2022/07/09 05:56:45;;;;;;;2.28;1.20;;;17.30;87.20;;;;;;4981960;28;20038;-82
2022/07/09 05:59:10;;;;;;;2.60;1.50;;;17.40;86.60;;;;;;4978793;28;20042;-82
2022/07/09 06:01:39;;;;;;;1.25;1.13;;;17.40;85.70;;;;;;4989278;28;20023;-83
2022/07/09 06:04:05;;;;;;;2.63;1.38;;;17.50;85.60;;;;;;4989700;28;20145;-84
2022/07/09 06:06:31;;;;;;;2.85;1.65;;;17.60;85.50;;;;;;4987599;28;20263;-83
2022/07/09 06:08:57;;;;;;;2.30;1.20;;;17.70;85.20;;;;;;4970732;28;20055;-83
2022/07/09 06:11:23;;;;;;;3.88;1.13;;;17.80;84.50;;;;;;4970384;28;20082;-83
2022/07/09 06:13:49;;;;;;;2.22;1.27;;;17.80;83.40;;;;;;4987954;28;20094;-83
2022/07/09 06:16:15;;;;;;;2.72;1.30;;;17.90;83.50;;;;;;4990058;28;20023;-84
2022/07/09 06:18:41;;;;;;;1.15;1.02;;;18.00;83.10;;;;;;4988840;28;20057;-84
2022/07/09 06:21:07;;;;;;;3.47;1.23;;;18.10;82.80;;;;;;4982315;28;20050;-81
2022/07/09 06:23:32;;;;;;;2.33;1.35;;;18.20;81.90;;;;;;4998371;28;20052;-83
2022/07/09 06:26:02;;;;;;;2.13;1.00;;;18.30;81.20;;;;;;4998710;28;20038;-81
2022/07/09 06:28:28;;;;;;;3.88;1.50;;;18.30;80.30;;;;;;4980733;28;20026;-83
2022/07/09 06:30:54;;;;;;;4.85;1.58;;;18.40;77.10;;;;;;4997642;28;20039;-81
2022/07/09 06:33:20;;;;;;;5.18;1.50;;;18.30;76.80;;;;;;4997441;28;20075;-82
2022/07/09 06:35:46;;;;;;;3.42;1.55;;;18.30;76.70;;;;;;4997535;28;20027;-84
2022/07/09 06:38:12;;;;;;;2.88;1.33;;;18.20;76.90;;;;;;4977243;28;20085;-83
2022/07/09 06:40:38;;;;;;;6.15;2.03;;;18.10;77.60;;;;;;4970394;28;20054;-83
2022/07/09 06:43:04;;;;;;;2.47;1.27;;;18.20;75.90;;;;;;4971084;28;20031;-82
2022/07/09 06:45:30;;;;;;;5.03;1.83;;;18.10;76.20;;;;;;4990502;28;20102;-82
2022/07/09 06:47:55;;;;;;;2.80;1.20;;;18.10;75.30;;;;;;4974542;28;20023;-84
2022/07/09 06:50:21;;;;;;;3.67;1.20;;;18.10;75.80;;;;;;4979505;28;20073;-83
2022/07/09 06:52:47;;;;;;;4.93;1.40;;;18.10;75.10;;;;;;4987757;28;20053;-83
2022/07/09 06:55:13;;;;;;;4.75;1.70;;;18.10;75.80;;;;;;4971708;28;20086;-84
2022/07/09 06:57:39;;;;;;;3.40;1.10;;;18.20;75.50;;;;;;4990089;28;20031;-84
2022/07/09 07:00:08;;;;;;;6.13;1.55;;;18.20;75.70;;;;;;4973919;28;20093;-83
2022/07/09 07:02:34;;;;;;;5.97;1.35;;;18.30;74.60;;;;;;4987555;28;20044;-82
2022/07/09 07:05:00;;;;;;;3.05;1.33;;;18.20;74.60;;;;;;4991018;28;20102;-84
2022/07/09 07:07:26;;;;;;;3.75;1.30;;;18.20;74.60;;;;;;4990108;28;20460;-83
2022/07/09 07:09:52;;;;;;;4.78;0.82;;;18.20;74.80;;;;;;4972106;28;20031;-84
2022/07/09 07:12:18;;;;;;;5.80;1.33;;;18.20;74.10;;;;;;4989087;28;20074;-84
2022/07/09 07:14:44;;;;;;;5.22;1.17;;;18.30;73.40;;;;;;4988290;28;20022;-84
2022/07/09 07:17:10;;;;;;;6.20;1.52;;;18.30;73.80;;;;;;4987397;28;20035;-83
2022/07/09 07:19:36;;;;;;;5.18;1.70;;;18.30;73.90;;;;;;4988126;28;20031;-84
2022/07/09 07:22:05;;;;;;;5.25;1.83;;;18.30;73.70;;;;;;4969519;28;20390;-84
2022/07/09 07:24:31;;;;;;;8.90;1.58;;;18.30;73.10;;;;;;4969708;28;20031;-84
2022/07/09 07:26:57;;;;;;;4.30;1.70;;;18.30;73.40;;;;;;4987724;28;20077;-83
2022/07/09 07:29:24;;;;;;;3.58;1.50;;;18.40;73.80;;;;;;4987206;28;20050;-84
2022/07/09 07:31:50;;;;;;;3.47;1.30;;;18.50;72.30;;;;;;4970142;28;20035;-84
2022/07/09 07:34:17;;;;;;;4.40;1.27;;;18.70;72.30;;;;;;4987936;28;20034;-84
2022/07/09 07:36:43;;;;;;;4.18;1.60;;;18.80;71.80;;;;;;4971926;28;20027;-85
2022/07/09 07:39:09;;;;;;;5.40;1.50;;;19.00;70.10;;;;;;4968961;28;20097;-82
2022/07/09 07:41:35;;;;;;;3.95;1.35;;;19.10;69.50;;;;;;4987599;28;20035;-84
2022/07/09 07:44:01;;;;;;;5.80;1.45;;;19.10;69.20;;;;;;4986140;28;20034;-85
2022/07/09 07:46:27;;;;;;;3.55;1.83;;;19.20;69.50;;;;;;4969980;28;20042;-84
2022/07/09 07:48:52;;;;;;;4.75;2.00;;;19.20;68.80;;;;;;4971463;28;20424;-86
2022/07/09 07:51:18;;;;;;;3.10;1.15;;;19.40;68.90;;;;;;4972351;28;20035;-85
2022/07/09 07:53:44;;;;;;;2.78;1.30;;;19.50;68.20;;;;;;4968423;28;20037;-85
2022/07/09 07:56:10;;;;;;;2.63;1.23;;;19.80;66.80;;;;;;4985994;28;20185;-83
2022/07/09 07:58:36;;;;;;;5.47;1.30;;;19.90;66.50;;;;;;4971545;28;20078;-84
2022/07/09 08:01:02;;;;;;;7.00;1.90;;;20.10;66.10;;;;;;4970175;28;20031;-84
2022/07/09 08:03:29;;;;;;;2.60;1.10;;;20.30;65.50;;;;;;4956214;28;20033;-84
2022/07/09 08:05:54;;;;;;;4.43;1.33;;;20.40;65.50;;;;;;4989015;28;20033;-85
2022/07/09 08:08:21;;;;;;;1.85;1.15;;;20.70;65.40;;;;;;4972150;28;20030;-84
2022/07/09 08:10:48;;;;;;;2.42;1.38;;;21.00;65.00;;;;;;4988701;28;20433;-83
2022/07/09 08:13:15;;;;;;;2.55;1.25;;;21.20;62.60;;;;;;4971698;28;20087;-85
2022/07/09 08:15:41;;;;;;;2.58;1.48;;;21.30;62.80;;;;;;4970556;28;20114;-83
2022/07/09 08:18:11;;;;;;;3.47;1.85;;;21.40;61.60;;;;;;4988735;28;20114;-85
2022/07/09 08:20:41;;;;;;;2.00;1.42;;;21.60;61.50;;;;;;4972383;28;20499;-84
2022/07/09 08:23:07;;;;;;;4.35;1.20;;;21.70;60.60;;;;;;4986756;28;20062;-85
2022/07/09 08:25:32;;;;;;;3.50;1.70;;;21.90;60.30;;;;;;4986979;28;20054;-84
2022/07/09 08:27:58;;;;;;;2.17;1.13;;;22.10;58.90;;;;;;4986474;28;20042;-86
2022/07/09 08:30:24;;;;;;;2.88;1.00;;;22.40;56.70;;;;;;4986054;28;20027;-86
2022/07/09 08:32:50;;;;;;;6.57;1.50;;;22.60;57.00;;;;;;4969617;28;20099;-86
2022/07/09 08:35:16;;;;;;;1.35;1.05;;;22.80;56.00;;;;;;4991348;28;20376;-84
2022/07/09 08:37:41;;;;;;;4.05;1.30;;;23.00;55.90;;;;;;4974154;28;20098;-86
2022/07/09 08:40:08;;;;;;;3.53;1.45;;;23.10;55.30;;;;;;4992418;28;20495;-85
2022/07/09 08:42:34;;;;;;;1.80;1.13;;;23.10;54.00;;;;;;4974785;28;20035;-84
2022/07/09 08:45:00;;;;;;;2.65;1.10;;;23.00;53.60;;;;;;4992981;28;20117;-86
2022/07/09 08:47:25;;;;;;;4.90;1.27;;;22.80;54.30;;;;;;4992479;28;20166;-85
2022/07/09 08:49:56;;;;;;;4.80;1.73;;;22.60;54.50;;;;;;4984287;28;20006;-85
2022/07/09 08:52:23;;;;;;;4.50;1.50;;;22.50;54.80;;;;;;4988988;28;20030;-86
2022/07/09 08:54:52;;;;;;;3.33;1.33;;;22.40;54.50;;;;;;4992308;28;20050;-84
2022/07/09 08:57:18;;;;;;;1.95;1.17;;;22.00;54.80;;;;;;4974622;28;20209;-85
2022/07/09 08:59:44;;;;;;;1.70;0.93;;;21.70;55.70;;;;;;4973317;28;20069;-85
2022/07/09 09:02:10;;;;;;;3.38;1.13;;;21.60;56.40;;;;;;4974312;28;20031;-84
2022/07/09 09:04:39;;;;;;;3.03;1.10;;;21.60;55.70;;;;;;4993634;28;20037;-83
2022/07/09 09:07:31;;;;;;;2.50;1.10;;;21.70;56.60;;;;;;4997262;28;20027;-82
2022/07/09 09:09:57;;;;;;;2.92;1.48;;;21.80;56.90;;;;;;4989314;28;20039;-84
2022/07/09 09:12:29;;;;;;;6.85;1.08;;;22.00;56.70;;;;;;4992395;28;20023;-83
2022/07/09 09:14:55;;;;;;;2.63;1.05;;;22.20;54.00;;;;;;4994582;28;20078;-85
2022/07/09 09:17:21;;;;;;;3.20;0.98;;;22.20;53.70;;;;;;4997115;28;20030;-83
2022/07/09 09:19:46;;;;;;;1.17;0.80;;;22.10;54.80;;;;;;4993328;28;20034;-84
2022/07/09 09:22:17;;;;;;;3.75;1.30;;;22.10;55.10;;;;;;4992054;28;20030;-85
2022/07/09 09:24:42;;;;;;;3.63;1.58;;;22.30;55.20;;;;;;4992693;28;20027;-86
2022/07/09 09:27:08;;;;;;;4.10;1.48;;;22.50;54.60;;;;;;4972684;28;20177;-84
2022/07/09 09:29:39;;;;;;;4.63;1.50;;;22.60;53.90;;;;;;4974708;28;20031;-84
2022/07/09 09:32:12;;;;;;;5.15;1.10;;;22.70;53.40;;;;;;4973519;28;20090;-85
2022/07/09 09:34:41;;;;;;;4.53;1.02;;;22.80;52.70;;;;;;4974514;28;20448;-85
2022/07/09 09:37:08;;;;;;;4.07;1.42;;;22.80;52.70;;;;;;4973964;28;20117;-83
2022/07/09 09:39:35;;;;;;;2.88;1.10;;;22.90;52.70;;;;;;4959012;28;20042;-83
2022/07/09 09:42:04;;;;;;;2.40;1.05;;;23.00;52.80;;;;;;4973432;28;20027;-84
2022/07/09 09:44:37;;;;;;;2.42;0.77;;;23.20;52.20;;;;;;4990350;28;20035;-85
2022/07/09 09:47:04;;;;;;;4.25;1.10;;;23.30;51.90;;;;;;4974315;28;20094;-84
2022/07/09 09:49:30;;;;;;;3.60;1.35;;;23.30;50.80;;;;;;4974277;28;20083;-84
2022/07/09 09:52:03;;;;;;;3.60;1.25;;;23.30;51.10;;;;;;4991639;28;20061;-83
2022/07/09 09:54:32;;;;;;;2.33;1.00;;;23.60;51.10;;;;;;4972934;28;20050;-85
2022/07/09 09:56:59;;;;;;;2.85;1.00;;;24.00;50.50;;;;;;4975111;28;20031;-84
2022/07/09 09:59:25;;;;;;;3.78;1.20;;;24.30;49.20;;;;;;4990616;28;20007;-84
2022/07/09 10:01:52;;;;;;;5.35;1.48;;;24.00;48.30;;;;;;4971462;28;20094;-85
2022/07/09 10:04:18;;;;;;;2.65;1.08;;;23.70;48.80;;;;;;4989395;28;20027;-84
2022/07/09 10:06:45;;;;;;;2.42;1.02;;;23.60;49.70;;;;;;4990252;28;20046;-85
2022/07/09 10:09:16;;;;;;;2.65;1.35;;;23.60;49.90;;;;;;4973220;28;20022;-84
2022/07/09 10:11:47;;;;;;;1.30;1.10;;;23.50;50.30;;;;;;4972917;28;20046;-84
2022/07/09 10:14:25;;;;;;;3.60;1.20;;;23.70;49.80;;;;;;4972727;28;20063;-86
2022/07/09 10:16:52;;;;;;;5.03;1.55;;;24.00;49.40;;;;;;4971843;28;20361;-83
2022/07/09 10:19:32;;;;;;;2.53;1.20;;;24.10;48.60;;;;;;4989390;28;20023;-83
2022/07/09 10:22:00;;;;;;;1.25;1.02;;;24.50;47.20;;;;;;4952005;29;20240;-84
2022/07/09 10:24:28;;;;;;;4.45;1.40;;;24.60;47.40;;;;;;4952775;29;20022;-86
2022/07/09 10:27:04;;;;;;;1.55;0.90;;;24.50;46.90;;;;;;4992000;28;20046;-83
2022/07/09 10:29:29;;;;;;;0.88;0.73;;;24.40;46.70;;;;;;4998890;28;20027;-82
2022/07/09 10:31:56;;;;;;;4.72;1.77;;;24.10;47.70;;;;;;4981514;28;20023;-82
2022/07/09 10:35:08;;;;;;;2.30;1.20;;;24.10;48.50;;;;;;4998418;28;20018;-82
2022/07/09 10:37:35;;;;;;;3.20;1.40;;;24.00;48.30;;;;;;4965753;28;20047;-83
2022/07/09 10:40:13;;;;;;;2.63;1.30;;;23.80;49.30;;;;;;4980981;28;20030;-83
2022/07/09 10:42:41;;;;;;;5.15;1.50;;;23.60;50.20;;;;;;4980917;28;20037;-82
2022/07/09 10:45:22;;;;;;;4.05;1.50;;;23.50;50.60;;;;;;4980836;28;20124;-83
2022/07/09 10:47:58;;;;;;;2.70;1.35;;;23.50;50.80;;;;;;4980763;28;20046;-82
2022/07/09 10:50:25;;;;;;;1.35;1.15;;;23.80;50.70;;;;;;4964189;28;20045;-84
2022/07/09 10:52:51;;;;;;;4.80;1.00;;;24.50;50.10;;;;;;4997827;28;20089;-82
2022/07/09 10:55:22;;;;;;;3.08;1.15;;;25.20;47.80;;;;;;4980716;28;20023;-82
2022/07/09 10:57:48;;;;;;;1.73;1.00;;;25.40;47.10;;;;;;4996256;28;20042;-83
2022/07/09 11:00:24;;;;;;;3.40;1.38;;;25.60;46.90;;;;;;4977723;28;20031;-82
2022/07/09 11:02:55;;;;;;;4.80;1.08;;;25.60;46.50;;;;;;4994085;28;20097;-86
2022/07/09 11:05:21;;;;;;;3.58;1.48;;;25.40;46.30;;;;;;4993779;28;20023;-83
2022/07/09 11:08:07;;;;;;;2.00;1.17;;;25.10;47.00;;;;;;4993460;28;20361;-84
2022/07/09 11:10:36;;;;;;;2.67;1.02;;;25.40;47.20;;;;;;4992290;28;20027;-83
2022/07/09 11:13:02;;;;;;;2.05;1.17;;;25.80;46.50;;;;;;4992557;28;20129;-83
2022/07/09 11:15:33;;;;;;;5.25;1.33;;;26.10;46.20;;;;;;4974665;28;20094;-82
2022/07/09 11:18:00;;;;;;;2.88;0.90;;;26.60;43.90;;;;;;4976636;28;20535;-84
2022/07/09 11:20:28;;;;;;;3.15;1.63;;;27.10;42.70;;;;;;4992873;28;20050;-84
2022/07/09 11:22:57;;;;;;;2.67;1.30;;;27.30;42.70;;;;;;4989159;28;20255;-84
2022/07/09 11:25:26;;;;;;;2.85;2.17;;;27.30;42.30;;;;;;4987064;28;20030;-83
2022/07/09 11:27:57;;;;;;;3.60;1.25;;;26.80;43.10;;;;;;4989634;28;20480;-83
2022/07/09 11:30:24;;;;;;;1.42;0.82;;;26.50;44.10;;;;;;4990075;28;20019;-85
2022/07/09 11:32:50;;;;;;;3.05;0.77;;;26.70;42.80;;;;;;4969456;28;20007;-84
2022/07/09 11:35:29;;;;;;;1.77;1.33;;;26.90;42.60;;;;;;4984736;28;20050;-80
2022/07/09 11:37:57;;;;;;;3.10;1.20;;;27.00;42.70;;;;;;4991196;28;20026;-83
2022/07/09 11:40:24;;;;;;;1.70;1.08;;;27.20;42.70;;;;;;4988855;28;20057;-83
2022/07/09 11:42:50;;;;;;;1.50;0.85;;;27.00;42.70;;;;;;4971158;28;20057;-85
2022/07/09 11:45:30;;;;;;;1.40;1.30;;;26.70;43.50;;;;;;4972631;28;20027;-82
2022/07/09 11:48:04;;;;;;;2.30;1.23;;;26.40;44.00;;;;;;4990921;28;20083;-85
2022/07/09 11:50:31;;;;;;;1.65;0.80;;;25.90;45.20;;;;;;4984956;28;20082;-85
2022/07/09 11:52:57;;;;;;;2.60;1.67;;;25.90;45.10;;;;;;4990267;28;20109;-84
2022/07/09 11:55:34;;;;;;;1.77;0.90;;;25.80;45.10;;;;;;4992434;28;20031;-84
2022/07/09 11:58:06;;;;;;;3.65;1.05;;;26.00;45.40;;;;;;4991927;28;20027;-84
2022/07/09 12:00:34;;;;;;;1.85;1.20;;;26.20;44.90;;;;;;4992667;28;20046;-84
2022/07/09 12:03:01;;;;;;;1.73;0.95;;;26.50;44.30;;;;;;4973968;28;20106;-81
2022/07/09 12:05:39;;;;;;;2.17;1.20;;;26.60;43.90;;;;;;4991417;28;20558;-81
2022/07/09 12:08:10;;;;;;;1.63;0.90;;;26.70;44.30;;;;;;4973248;28;20061;-83
2022/07/09 12:10:40;;;;;;;3.22;1.13;;;26.70;43.20;;;;;;4992938;28;20027;-83
2022/07/09 12:13:09;;;;;;;3.78;1.50;;;26.60;43.10;;;;;;4992897;28;20117;-82
2022/07/09 12:15:35;;;;;;;1.65;1.08;;;26.80;43.20;;;;;;4988552;28;20039;-83
2022/07/09 12:18:01;;;;;;;1.88;1.00;;;27.20;43.20;;;;;;4986401;28;20022;-84
2022/07/09 12:20:31;;;;;;;1.10;1.00;;;27.60;42.30;;;;;;4984403;28;20030;-83
2022/07/09 12:22:58;;;;;;;2.75;0.85;;;27.70;41.60;;;;;;4989901;28;20679;-84
2022/07/09 12:25:24;;;;;;;2.80;0.82;;;27.50;41.60;;;;;;4972754;28;20033;-83
2022/07/09 12:27:50;;;;;;;1.90;1.02;;;27.70;41.70;;;;;;4974566;28;20189;-83
2022/07/09 12:30:17;;;;;;;1.33;0.90;;;27.70;41.60;;;;;;4991418;28;20062;-82
2022/07/09 12:32:43;;;;;;;1.25;0.77;;;27.80;41.70;;;;;;4970173;28;20026;-83
2022/07/09 12:35:10;;;;;;;5.32;1.10;;;27.90;41.10;;;;;;4991433;28;20054;-80
2022/07/09 12:37:39;;;;;;;2.42;1.00;;;27.70;41.70;;;;;;4973605;28;20035;-83
2022/07/09 12:40:07;;;;;;;3.78;1.30;;;27.40;40.80;;;;;;4990194;28;20085;-82
2022/07/09 12:42:34;;;;;;;2.05;1.40;;;27.20;41.00;;;;;;4991662;28;20070;-81
2022/07/09 12:45:00;;;;;;;1.00;0.90;;;27.00;41.50;;;;;;4979271;28;20015;-80
2022/07/09 12:47:25;;;;;;;2.95;1.30;;;27.10;42.10;;;;;;4994929;28;20043;-83